Time;durP1;ratioP1;P1;durP2;ratioP2;P2;SDS_P1;SDS_P2;PMS_P1;PMS_P2;Temp;Humidity;BMP_temperature;BMP_pressure;BME280_temperature;BME280_humidity;BME280_pressure;Samples;Min_cycle;Max_cycle;Signal;HPM_P1;HPM_P2
2021/09/17 00:00:15;;;;;;;9.83;6.40;;;15.20;99.90;;;;;;5032397;28;20560;-77
2021/09/17 00:02:42;;;;;;;7.70;5.07;;;15.30;99.90;;;;;;5033735;28;20891;-77
2021/09/17 00:05:11;;;;;;;9.53;5.07;;;15.30;99.90;;;;;;5035833;28;20431;-75
2021/09/17 00:07:38;;;;;;;6.00;4.73;;;15.40;99.90;;;;;;5038431;28;20430;-75
2021/09/17 00:10:06;;;;;;;6.27;5.00;;;15.40;99.90;;;;;;5038700;28;20484;-76
2021/09/17 00:12:33;;;;;;;7.60;5.40;;;15.20;99.90;;;;;;5038176;28;20950;-75
2021/09/17 00:15:00;;;;;;;7.40;5.13;;;15.30;99.90;;;;;;5023556;28;20425;-77
2021/09/17 00:17:27;;;;;;;8.97;5.80;;;15.40;99.90;;;;;;5030776;28;20451;-76
2021/09/17 00:19:54;;;;;;;7.33;5.70;;;15.30;99.90;;;;;;5037899;28;20483;-77
2021/09/17 00:22:22;;;;;;;8.30;5.37;;;15.30;99.90;;;;;;5037554;28;20446;-77
2021/09/17 00:24:49;;;;;;;7.00;5.20;;;15.20;99.90;;;;;;5037560;28;20476;-76
2021/09/17 00:27:16;;;;;;;8.73;5.93;;;15.10;99.90;;;;;;5037612;28;20456;-77
2021/09/17 00:29:42;;;;;;;7.10;5.27;;;15.10;99.90;;;;;;5017676;28;20455;-77
2021/09/17 00:32:09;;;;;;;9.60;6.10;;;15.10;99.90;;;;;;5027392;28;20557;-76
2021/09/17 00:34:36;;;;;;;8.03;5.60;;;15.20;99.90;;;;;;5036644;28;20457;-76
2021/09/17 00:37:03;;;;;;;6.90;4.60;;;15.30;99.90;;;;;;5036996;28;20449;-77
2021/09/17 00:39:31;;;;;;;8.60;4.93;;;15.30;99.90;;;;;;5036730;28;20484;-76
2021/09/17 00:41:58;;;;;;;7.13;4.93;;;15.40;99.90;;;;;;5032555;28;20519;-76
2021/09/17 00:44:26;;;;;;;6.33;4.40;;;15.40;99.90;;;;;;5017023;28;20460;-77
2021/09/17 00:46:53;;;;;;;11.00;5.80;;;15.40;99.90;;;;;;5016838;28;20428;-77
2021/09/17 00:49:21;;;;;;;9.20;5.37;;;15.40;99.90;;;;;;5017145;28;20808;-77
2021/09/17 00:51:48;;;;;;;11.00;6.17;;;15.50;99.90;;;;;;5025086;28;20432;-77
2021/09/17 00:54:16;;;;;;;10.03;5.17;;;15.40;99.90;;;;;;5036356;28;20445;-77
2021/09/17 00:56:45;;;;;;;8.57;5.03;;;15.50;99.90;;;;;;5036848;28;20455;-77
2021/09/17 00:59:12;;;;;;;6.83;5.20;;;15.50;99.90;;;;;;5036541;28;20459;-77
2021/09/17 01:01:39;;;;;;;8.47;5.40;;;15.40;99.90;;;;;;5036710;28;20455;-77
2021/09/17 01:04:06;;;;;;;7.93;4.90;;;15.40;99.90;;;;;;5036092;28;20532;-77
2021/09/17 01:06:33;;;;;;;7.40;4.57;;;15.40;99.90;;;;;;5035060;28;20451;-77
2021/09/17 01:09:01;;;;;;;8.90;5.90;;;15.50;99.90;;;;;;5036517;28;20458;-76
2021/09/17 01:11:28;;;;;;;7.30;5.10;;;15.50;99.90;;;;;;5036749;28;20561;-77
2021/09/17 01:13:56;;;;;;;6.33;5.13;;;15.50;99.90;;;;;;5036167;28;20419;-77
2021/09/17 01:16:23;;;;;;;10.80;5.30;;;15.50;99.90;;;;;;5036325;28;20452;-76
2021/09/17 01:18:52;;;;;;;8.93;4.93;;;15.40;99.90;;;;;;5035853;28;20451;-76
2021/09/17 01:21:20;;;;;;;6.70;5.10;;;15.40;99.90;;;;;;5024577;28;20477;-76
2021/09/17 01:23:47;;;;;;;6.47;4.53;;;15.40;99.90;;;;;;5036597;28;20540;-77
2021/09/17 01:26:14;;;;;;;8.87;4.73;;;15.60;99.90;;;;;;5036121;28;20449;-76
2021/09/17 01:28:41;;;;;;;7.33;4.87;;;15.70;99.90;;;;;;5035597;28;20929;-77
2021/09/17 01:31:08;;;;;;;7.90;5.00;;;15.60;99.90;;;;;;5035998;28;20469;-77
2021/09/17 01:33:35;;;;;;;7.30;5.10;;;15.70;99.90;;;;;;5035669;28;20817;-76
2021/09/17 01:36:05;;;;;;;5.97;4.50;;;15.70;99.90;;;;;;5033374;28;20453;-77
2021/09/17 01:38:35;;;;;;;7.90;5.30;;;15.70;99.90;;;;;;5035519;28;20459;-76
2021/09/17 01:41:02;;;;;;;6.00;5.17;;;15.70;99.90;;;;;;5033880;28;21005;-76
2021/09/17 01:43:29;;;;;;;7.53;5.30;;;15.60;99.90;;;;;;5036232;28;20950;-77
2021/09/17 01:45:56;;;;;;;6.73;4.50;;;15.60;99.90;;;;;;5035991;28;20445;-77
2021/09/17 01:48:26;;;;;;;8.60;4.67;;;15.60;99.90;;;;;;5030406;28;20430;-77
2021/09/17 01:50:53;;;;;;;10.47;5.23;;;15.60;99.90;;;;;;5015926;28;20470;-76
2021/09/17 01:53:20;;;;;;;7.10;5.13;;;15.60;99.90;;;;;;5035597;28;20432;-76
2021/09/17 01:55:48;;;;;;;5.23;4.50;;;15.60;99.90;;;;;;5035092;28;20950;-76
2021/09/17 01:58:15;;;;;;;5.73;4.90;;;15.70;99.90;;;;;;5035765;28;20460;-76
2021/09/17 02:00:42;;;;;;;9.80;5.20;;;15.60;99.90;;;;;;5035785;28;20448;-77
2021/09/17 02:03:09;;;;;;;6.13;4.60;;;15.60;99.90;;;;;;5027660;28;20461;-76
2021/09/17 02:05:35;;;;;;;6.10;4.73;;;15.80;99.90;;;;;;5035953;28;20453;-75
2021/09/17 02:08:02;;;;;;;7.00;5.10;;;15.90;99.90;;;;;;5035236;28;20460;-76
2021/09/17 02:10:29;;;;;;;7.10;5.43;;;16.10;99.90;;;;;;5034837;28;20449;-75
2021/09/17 02:12:57;;;;;;;7.87;5.10;;;15.90;99.90;;;;;;5034422;28;20460;-75
2021/09/17 02:15:24;;;;;;;8.33;5.40;;;15.90;99.90;;;;;;5034621;28;20449;-76
2021/09/17 02:17:51;;;;;;;6.67;5.40;;;15.80;99.90;;;;;;5034809;28;20485;-76
2021/09/17 02:20:17;;;;;;;6.40;5.20;;;15.70;99.90;;;;;;5039870;22;20868;-79
2021/09/17 02:22:44;;;;;;;5.97;4.77;;;15.70;99.90;;;;;;5015579;28;20439;-79
2021/09/17 02:25:12;;;;;;;7.37;5.20;;;15.70;99.90;;;;;;5016068;28;20551;-79
2021/09/17 02:27:38;;;;;;;7.97;4.70;;;15.80;99.90;;;;;;5015553;28;20469;-79
2021/09/17 02:30:10;;;;;;;8.93;4.70;;;15.90;99.90;;;;;;5016567;28;20449;-79
2021/09/17 02:32:38;;;;;;;9.00;5.70;;;15.80;99.90;;;;;;4984329;28;20461;-79
2021/09/17 02:35:06;;;;;;;7.37;5.33;;;15.70;99.90;;;;;;4977588;28;20917;-79
2021/09/17 02:37:33;;;;;;;11.23;5.40;;;15.70;99.90;;;;;;4977185;28;20453;-79
2021/09/17 02:39:59;;;;;;;7.23;5.13;;;15.60;99.90;;;;;;4992050;28;20478;-79
2021/09/17 02:42:27;;;;;;;7.03;4.80;;;15.70;99.90;;;;;;4995340;28;20820;-79
2021/09/17 02:44:53;;;;;;;7.17;4.90;;;15.70;99.90;;;;;;4995650;28;20426;-79
2021/09/17 02:47:22;;;;;;;7.77;4.80;;;15.80;99.90;;;;;;4995821;28;20784;-79
2021/09/17 02:49:49;;;;;;;10.17;4.43;;;15.90;99.90;;;;;;4981170;28;20484;-80
2021/09/17 02:52:16;;;;;;;9.17;4.50;;;16.00;99.90;;;;;;4986052;28;20843;-79
2021/09/17 02:54:42;;;;;;;6.17;4.73;;;15.90;99.90;;;;;;4997494;28;20461;-78
2021/09/17 02:57:09;;;;;;;7.83;5.40;;;15.80;99.90;;;;;;4999159;28;20798;-78
2021/09/17 02:59:36;;;;;;;5.00;4.43;;;15.80;99.90;;;;;;4997761;28;20484;-78
2021/09/17 03:02:03;;;;;;;7.67;4.33;;;15.80;99.90;;;;;;4998562;28;20675;-78
2021/09/17 03:04:31;;;;;;;5.67;4.27;;;15.80;99.90;;;;;;4997908;28;20451;-78
2021/09/17 03:06:58;;;;;;;5.70;5.03;;;15.70;99.90;;;;;;4996613;28;21024;-79
2021/09/17 03:09:25;;;;;;;8.20;5.30;;;15.90;99.90;;;;;;4985482;28;20423;-79
2021/09/17 03:11:52;;;;;;;8.23;4.70;;;16.00;99.90;;;;;;4984137;28;20552;-79
2021/09/17 03:14:19;;;;;;;6.87;4.70;;;15.90;99.90;;;;;;4996977;28;20480;-79
2021/09/17 03:16:46;;;;;;;7.53;4.60;;;16.00;99.90;;;;;;4998761;28;20872;-79
2021/09/17 03:19:12;;;;;;;7.30;5.10;;;16.00;99.90;;;;;;4992962;28;20455;-79
2021/09/17 03:21:41;;;;;;;5.83;4.67;;;16.00;99.90;;;;;;4989299;28;20579;-79
2021/09/17 03:24:07;;;;;;;6.50;4.70;;;15.90;99.90;;;;;;4998631;28;20451;-79
2021/09/17 03:26:34;;;;;;;5.93;4.83;;;15.80;99.90;;;;;;4996514;28;20568;-80
2021/09/17 03:29:02;;;;;;;6.10;5.03;;;15.90;99.90;;;;;;4991631;28;20520;-80
2021/09/17 03:31:29;;;;;;;8.80;6.63;;;15.80;99.90;;;;;;4996420;28;20456;-79
2021/09/17 03:33:58;;;;;;;8.70;5.10;;;15.80;99.90;;;;;;4995607;28;20447;-79
2021/09/17 03:36:26;;;;;;;7.30;4.60;;;15.90;99.90;;;;;;4994797;28;20853;-78
2021/09/17 03:38:55;;;;;;;6.80;4.83;;;15.90;99.90;;;;;;4991818;28;20476;-79
2021/09/17 03:41:21;;;;;;;6.73;5.07;;;16.00;99.90;;;;;;4979767;28;20528;-79
2021/09/17 03:43:48;;;;;;;6.47;4.53;;;16.20;99.90;;;;;;4995084;28;20835;-80
2021/09/17 03:46:15;;;;;;;8.93;4.40;;;16.20;99.90;;;;;;4994919;28;20947;-79
2021/09/17 03:48:42;;;;;;;7.00;4.67;;;16.20;99.90;;;;;;4996751;28;20459;-79
2021/09/17 03:51:09;;;;;;;7.60;5.07;;;16.10;99.90;;;;;;5000517;28;20505;-79
2021/09/17 03:53:36;;;;;;;6.50;4.60;;;16.10;99.90;;;;;;4998115;28;20483;-79
2021/09/17 03:56:04;;;;;;;6.73;4.70;;;16.00;99.90;;;;;;4994877;28;20426;-79
2021/09/17 03:58:31;;;;;;;6.93;4.67;;;16.00;99.90;;;;;;4995562;28;20446;-79
2021/09/17 04:00:58;;;;;;;5.93;4.87;;;16.00;99.90;;;;;;4996204;28;20510;-79
2021/09/17 04:03:25;;;;;;;6.03;4.63;;;16.10;99.90;;;;;;4998990;28;20827;-79
2021/09/17 04:05:52;;;;;;;7.33;5.17;;;16.20;99.90;;;;;;4994484;28;20538;-79
2021/09/17 04:08:18;;;;;;;6.47;5.10;;;16.10;99.90;;;;;;4994931;28;20449;-80
2021/09/17 04:10:45;;;;;;;6.60;4.70;;;16.10;99.90;;;;;;4976762;28;20472;-80
2021/09/17 04:13:13;;;;;;;9.03;5.33;;;16.10;99.90;;;;;;4994598;28;20811;-80
2021/09/17 04:15:40;;;;;;;8.70;4.37;;;16.10;99.90;;;;;;4994994;28;20511;-80
2021/09/17 04:18:07;;;;;;;6.87;4.30;;;16.00;99.90;;;;;;4994499;28;20553;-79
2021/09/17 04:20:34;;;;;;;8.20;5.27;;;16.00;99.90;;;;;;4992962;28;20465;-79
2021/09/17 04:23:01;;;;;;;9.87;5.30;;;16.00;99.90;;;;;;4982329;28;20456;-79
2021/09/17 04:25:29;;;;;;;6.20;5.07;;;15.90;99.90;;;;;;4988477;28;20430;-79
2021/09/17 04:27:56;;;;;;;7.10;4.60;;;15.80;99.90;;;;;;4994513;28;20459;-80
2021/09/17 04:30:24;;;;;;;10.63;5.50;;;15.80;99.90;;;;;;4993958;28;20845;-80
2021/09/17 04:32:51;;;;;;;7.70;5.30;;;15.80;99.90;;;;;;4994012;28;20462;-80
2021/09/17 04:35:18;;;;;;;6.60;5.10;;;15.70;99.90;;;;;;4995040;28;20447;-80
2021/09/17 04:37:47;;;;;;;11.30;6.13;;;15.70;99.90;;;;;;5000457;28;20451;-78
2021/09/17 04:40:16;;;;;;;6.90;5.27;;;15.70;99.90;;;;;;4982833;28;20560;-80
2021/09/17 04:42:44;;;;;;;7.27;5.50;;;15.70;99.90;;;;;;4991644;28;20426;-79
2021/09/17 04:45:12;;;;;;;10.93;6.03;;;15.70;99.90;;;;;;4998697;28;20451;-79
2021/09/17 04:47:40;;;;;;;9.83;5.60;;;15.70;99.90;;;;;;5001862;28;20887;-79
2021/09/17 04:50:09;;;;;;;8.03;5.50;;;15.70;99.90;;;;;;5002048;28;20464;-79
2021/09/17 04:52:36;;;;;;;8.90;5.20;;;15.70;99.90;;;;;;5006608;28;20455;-79
2021/09/17 04:55:05;;;;;;;8.30;5.87;;;15.80;99.90;;;;;;5000625;28;20440;-79
2021/09/17 04:57:32;;;;;;;9.93;5.40;;;15.80;99.90;;;;;;5004676;28;20783;-79
2021/09/17 04:59:59;;;;;;;7.30;5.30;;;15.80;99.90;;;;;;4998586;28;20516;-79
2021/09/17 05:02:26;;;;;;;6.87;5.47;;;15.80;99.90;;;;;;4997684;28;20476;-79
2021/09/17 05:04:54;;;;;;;6.70;4.63;;;15.80;99.90;;;;;;4997494;28;20454;-79
2021/09/17 05:07:21;;;;;;;9.53;5.50;;;15.80;99.90;;;;;;4997472;28;20543;-79
2021/09/17 05:09:48;;;;;;;8.33;5.80;;;15.90;99.90;;;;;;5007257;28;20527;-78
2021/09/17 05:12:14;;;;;;;7.27;4.93;;;15.90;99.90;;;;;;5002346;28;20510;-79
2021/09/17 05:14:41;;;;;;;8.73;5.17;;;15.90;99.90;;;;;;4998994;28;20465;-79
2021/09/17 05:17:08;;;;;;;10.00;5.03;;;16.00;99.90;;;;;;4997215;28;20456;-80
2021/09/17 05:19:35;;;;;;;6.23;5.40;;;15.90;99.90;;;;;;4997207;28;20474;-79
2021/09/17 05:22:03;;;;;;;7.80;5.60;;;15.70;99.90;;;;;;4996896;28;20475;-80
2021/09/17 05:24:30;;;;;;;11.10;5.73;;;15.60;99.90;;;;;;4998458;28;20456;-79
2021/09/17 05:26:57;;;;;;;9.77;5.53;;;15.60;99.90;;;;;;5000646;28;20458;-79
2021/09/17 05:29:24;;;;;;;9.03;6.37;;;15.60;99.90;;;;;;4995204;28;20433;-79
2021/09/17 05:31:50;;;;;;;7.13;5.07;;;15.60;99.90;;;;;;4986416;28;20597;-79
2021/09/17 05:34:17;;;;;;;6.87;5.00;;;15.60;99.90;;;;;;4997654;28;20567;-79
2021/09/17 05:36:44;;;;;;;10.53;5.70;;;15.50;99.90;;;;;;4999717;28;20450;-79
2021/09/17 05:39:12;;;;;;;7.10;5.60;;;15.40;99.90;;;;;;4996629;28;20464;-79
2021/09/17 05:41:39;;;;;;;7.60;5.53;;;15.40;99.90;;;;;;4997265;28;20457;-79
2021/09/17 05:44:06;;;;;;;8.00;5.00;;;15.40;99.90;;;;;;4999238;28;20414;-79
2021/09/17 05:46:33;;;;;;;6.60;5.33;;;15.40;99.90;;;;;;4997962;28;20487;-79
2021/09/17 05:49:00;;;;;;;8.90;6.27;;;15.40;99.90;;;;;;4997372;28;20546;-79
2021/09/17 05:51:26;;;;;;;8.10;5.43;;;15.40;99.90;;;;;;4997206;28;20998;-79
2021/09/17 05:53:53;;;;;;;9.30;6.53;;;15.40;99.90;;;;;;4997298;28;20543;-78
2021/09/17 05:56:21;;;;;;;8.50;5.23;;;15.50;99.90;;;;;;4997046;28;20847;-80
2021/09/17 05:58:48;;;;;;;9.03;5.20;;;15.50;99.90;;;;;;5002044;28;20422;-79
2021/09/17 06:01:15;;;;;;;7.93;6.03;;;15.70;99.90;;;;;;4979580;28;20794;-80
2021/09/17 06:03:42;;;;;;;10.50;5.90;;;15.70;99.90;;;;;;4996020;28;20457;-80
2021/09/17 06:06:09;;;;;;;12.00;5.60;;;15.70;99.90;;;;;;4998133;28;20479;-78
2021/09/17 06:08:36;;;;;;;9.57;5.43;;;15.70;99.90;;;;;;4996856;28;20954;-78
2021/09/17 06:11:03;;;;;;;10.03;5.70;;;15.80;99.90;;;;;;4997334;28;20554;-80
2021/09/17 06:13:31;;;;;;;7.40;5.60;;;15.80;99.90;;;;;;4977345;28;20427;-79
2021/09/17 06:15:58;;;;;;;9.23;5.77;;;15.80;99.90;;;;;;5000349;28;20487;-78
2021/09/17 06:18:25;;;;;;;6.50;5.30;;;15.90;99.90;;;;;;4996577;28;20500;-79
2021/09/17 06:20:51;;;;;;;8.50;6.37;;;15.90;99.90;;;;;;4981341;28;20569;-79
2021/09/17 06:23:18;;;;;;;8.47;6.43;;;15.90;99.90;;;;;;4977404;28;20462;-79
2021/09/17 06:25:45;;;;;;;9.53;6.13;;;15.90;99.90;;;;;;4978122;28;20805;-79
2021/09/17 06:28:12;;;;;;;10.33;6.00;;;15.90;99.90;;;;;;4988307;28;20455;-79
2021/09/17 06:30:40;;;;;;;7.57;5.90;;;15.90;99.90;;;;;;4995442;28;20488;-79
2021/09/17 06:33:08;;;;;;;8.50;6.20;;;15.90;99.90;;;;;;4996176;28;20453;-80
2021/09/17 06:35:34;;;;;;;9.20;6.27;;;16.00;99.90;;;;;;4996141;28;20786;-79
2021/09/17 06:38:01;;;;;;;9.80;6.23;;;16.00;99.90;;;;;;4995412;28;20657;-79
2021/09/17 06:40:29;;;;;;;8.17;5.70;;;16.00;99.90;;;;;;4994630;28;20486;-79
2021/09/17 06:42:56;;;;;;;8.30;6.53;;;16.10;99.90;;;;;;4995593;28;20489;-77
2021/09/17 06:45:23;;;;;;;9.40;6.60;;;16.10;99.90;;;;;;4992810;28;20452;-77
2021/09/17 06:47:54;;;;;;;8.17;6.70;;;16.10;99.90;;;;;;4993316;28;20459;-77
2021/09/17 06:50:23;;;;;;;10.23;6.10;;;16.20;99.90;;;;;;4992620;28;20973;-83
2021/09/17 06:52:52;;;;;;;7.47;6.30;;;16.30;99.90;;;;;;4994022;28;20571;-77
2021/09/17 06:55:20;;;;;;;10.73;6.43;;;16.50;99.90;;;;;;4994161;28;20479;-76
2021/09/17 06:57:49;;;;;;;8.23;6.90;;;16.50;99.90;;;;;;4992493;28;20457;-76
2021/09/17 07:00:17;;;;;;;14.37;7.17;;;16.40;99.90;;;;;;4991738;28;20784;-76
2021/09/17 07:02:44;;;;;;;10.73;6.33;;;16.50;99.90;;;;;;4993393;28;20426;-79
2021/09/17 07:05:14;;;;;;;9.63;6.17;;;16.50;99.90;;;;;;4992965;28;20456;-76
2021/09/17 07:07:41;;;;;;;8.93;5.60;;;16.60;99.90;;;;;;4992749;28;20478;-76
2021/09/17 07:10:09;;;;;;;9.80;7.03;;;16.60;99.90;;;;;;4991795;28;20466;-76
2021/09/17 07:12:38;;;;;;;10.60;6.20;;;16.60;99.90;;;;;;4993350;28;20559;-76
2021/09/17 07:15:12;;;;;;;10.70;6.40;;;16.60;99.90;;;;;;4992410;28;20536;-76
2021/09/17 07:17:39;;;;;;;10.83;7.43;;;16.70;99.90;;;;;;4992826;28;20524;-76
2021/09/17 07:20:07;;;;;;;8.57;6.80;;;16.80;99.90;;;;;;4992093;28;20492;-76
2021/09/17 07:22:35;;;;;;;8.10;7.10;;;16.90;99.90;;;;;;4993142;28;20435;-77
2021/09/17 07:25:03;;;;;;;11.30;7.53;;;16.90;99.90;;;;;;4992314;28;20982;-76
2021/09/17 07:27:30;;;;;;;10.23;6.80;;;17.00;99.90;;;;;;4993238;28;20772;-77
2021/09/17 07:29:56;;;;;;;9.27;7.07;;;17.10;99.90;;;;;;4991887;28;20449;-77
2021/09/17 07:32:24;;;;;;;10.43;7.70;;;17.20;99.90;;;;;;4986885;28;20557;-77
2021/09/17 07:34:50;;;;;;;9.40;7.00;;;17.30;99.90;;;;;;4973293;28;20457;-75
2021/09/17 07:37:17;;;;;;;7.43;6.63;;;17.30;99.90;;;;;;4984719;28;21013;-76
2021/09/17 07:39:45;;;;;;;9.90;7.43;;;17.40;99.90;;;;;;4988856;28;20556;-77
2021/09/17 07:42:12;;;;;;;9.27;6.67;;;17.40;99.90;;;;;;4991779;28;20556;-75
2021/09/17 07:44:39;;;;;;;9.53;6.80;;;17.60;99.90;;;;;;4990382;28;20468;-77
2021/09/17 07:47:06;;;;;;;9.47;7.70;;;17.60;99.90;;;;;;4989772;28;20470;-76
2021/09/17 07:49:34;;;;;;;13.00;7.00;;;17.70;99.90;;;;;;4991672;28;20458;-77
2021/09/17 07:52:01;;;;;;;9.20;7.73;;;17.90;99.90;;;;;;4991165;28;20485;-76
2021/09/17 07:54:29;;;;;;;11.07;8.00;;;17.80;99.90;;;;;;4991399;28;20466;-76
2021/09/17 07:56:57;;;;;;;11.13;8.40;;;17.80;99.90;;;;;;4990486;28;20550;-76
2021/09/17 07:59:24;;;;;;;9.27;7.60;;;17.90;99.90;;;;;;4987679;28;20476;-76
2021/09/17 08:01:51;;;;;;;13.03;8.00;;;18.30;99.90;;;;;;4991163;28;20496;-76
2021/09/17 08:04:18;;;;;;;10.87;7.97;;;18.40;99.90;;;;;;4991222;28;20778;-76
2021/09/17 08:06:44;;;;;;;9.57;7.77;;;18.10;99.90;;;;;;4988754;28;20569;-77
2021/09/17 08:09:12;;;;;;;12.87;8.40;;;18.20;99.90;;;;;;4987660;28;20450;-76
2021/09/17 08:11:39;;;;;;;11.87;8.27;;;18.30;99.90;;;;;;4984208;28;20482;-77
2021/09/17 08:14:08;;;;;;;11.10;8.70;;;18.20;99.90;;;;;;4972253;28;20454;-76
2021/09/17 08:16:35;;;;;;;8.47;7.60;;;18.30;99.90;;;;;;4971932;28;20486;-76
2021/09/17 08:19:03;;;;;;;12.87;8.13;;;18.20;99.90;;;;;;4972778;28;20501;-76
2021/09/17 08:21:30;;;;;;;12.97;10.50;;;18.10;99.90;;;;;;4979675;28;20529;-76
2021/09/17 08:23:57;;;;;;;11.13;8.90;;;18.20;99.90;;;;;;4972087;28;20456;-77
2021/09/17 08:26:24;;;;;;;14.90;9.70;;;18.30;99.90;;;;;;4974778;28;20433;-76
2021/09/17 08:28:51;;;;;;;13.23;11.17;;;18.50;99.90;;;;;;4975918;28;20493;-76
2021/09/17 08:31:19;;;;;;;14.13;10.87;;;18.60;99.90;;;;;;4990993;28;20473;-76
2021/09/17 08:33:47;;;;;;;14.77;9.70;;;18.50;99.90;;;;;;4995947;28;20801;-77
2021/09/17 08:36:14;;;;;;;19.50;11.10;;;18.40;99.90;;;;;;4995423;28;20467;-77
2021/09/17 08:38:41;;;;;;;11.70;10.50;;;18.40;99.90;;;;;;4996144;28;20459;-76
2021/09/17 08:41:10;;;;;;;12.30;10.90;;;18.30;99.90;;;;;;4995711;28;20467;-77
2021/09/17 08:43:37;;;;;;;16.90;11.40;;;18.20;99.90;;;;;;5021202;23;20532;-76
2021/09/17 08:46:04;;;;;;;11.87;10.50;;;18.20;99.90;;;;;;5040250;28;20447;-77
2021/09/17 08:48:32;;;;;;;13.80;11.17;;;18.30;99.90;;;;;;5039715;28;20531;-77
2021/09/17 08:50:59;;;;;;;14.33;11.13;;;18.30;99.90;;;;;;5038293;28;20514;-77
2021/09/17 08:53:26;;;;;;;14.83;11.43;;;18.20;99.90;;;;;;5037017;28;20458;-76
2021/09/17 08:55:54;;;;;;;16.57;11.87;;;18.30;99.90;;;;;;5038515;28;20490;-77
2021/09/17 08:58:20;;;;;;;12.03;10.43;;;18.40;99.90;;;;;;5041274;28;20533;-77
2021/09/17 09:00:47;;;;;;;15.00;11.80;;;18.60;99.90;;;;;;5037004;28;20457;-76
2021/09/17 09:03:28;;;;;;;15.13;9.87;;;18.80;99.90;;;;;;5035888;28;20512;-77
2021/09/17 09:05:59;;;;;;;13.50;10.30;;;18.90;99.90;;;;;;5039440;28;20435;-76
2021/09/17 09:08:27;;;;;;;12.30;10.53;;;18.80;99.90;;;;;;5038489;28;20447;-77
2021/09/17 09:10:54;;;;;;;16.10;11.83;;;18.80;99.90;;;;;;5027192;28;20554;-77
2021/09/17 09:13:21;;;;;;;16.77;11.00;;;18.90;99.90;;;;;;5038569;28;20455;-77
2021/09/17 09:15:48;;;;;;;12.70;10.50;;;19.00;99.90;;;;;;5040708;28;20553;-77
2021/09/17 09:18:18;;;;;;;15.90;13.47;;;18.80;99.90;;;;;;5041499;28;20453;-77
2021/09/17 09:20:46;;;;;;;15.20;12.10;;;18.70;99.90;;;;;;5032563;28;20488;-78
2021/09/17 09:23:19;;;;;;;13.63;11.60;;;18.70;99.90;;;;;;5039500;28;20952;-77
2021/09/17 09:25:52;;;;;;;14.30;11.80;;;18.60;99.90;;;;;;5040755;28;20551;-77
2021/09/17 09:28:24;;;;;;;19.93;11.67;;;18.60;99.90;;;;;;5039658;28;20421;-77
2021/09/17 09:30:52;;;;;;;15.90;11.97;;;18.70;99.90;;;;;;5031922;28;20498;-77
2021/09/17 09:33:28;;;;;;;17.93;11.80;;;19.00;99.90;;;;;;5043973;28;20925;-77
2021/09/17 09:36:00;;;;;;;14.53;10.83;;;19.10;99.90;;;;;;5044632;28;20447;-77
2021/09/17 09:38:38;;;;;;;17.00;11.87;;;19.10;99.90;;;;;;5041050;28;20889;-80
2021/09/17 09:41:08;;;;;;;16.53;11.63;;;19.20;99.90;;;;;;5031803;28;20468;-77
2021/09/17 09:43:36;;;;;;;17.13;10.97;;;19.10;99.90;;;;;;5041409;28;20831;-77
2021/09/17 09:46:28;;;;;;;13.10;10.90;;;19.20;99.90;;;;;;5037421;28;20440;-76
2021/09/17 09:49:16;;;;;;;11.53;9.93;;;19.20;99.90;;;;;;5033116;28;20502;-77
2021/09/17 09:51:59;;;;;;;16.10;13.30;;;19.30;99.90;;;;;;5027341;28;20484;-78
2021/09/17 09:54:31;;;;;;;16.97;12.27;;;19.20;99.90;;;;;;5035746;28;20508;-78
2021/09/17 09:56:59;;;;;;;14.60;11.27;;;19.00;99.90;;;;;;5049796;28;20512;-78
2021/09/17 09:59:28;;;;;;;12.60;11.13;;;19.10;99.90;;;;;;5048480;28;20451;-78
2021/09/17 10:01:57;;;;;;;12.53;9.87;;;19.30;99.90;;;;;;5022740;28;20575;-79
2021/09/17 10:04:25;;;;;;;14.83;10.50;;;19.30;99.90;;;;;;5022951;28;20477;-77
2021/09/17 10:07:04;;;;;;;14.13;10.47;;;19.50;99.90;;;;;;5026433;28;20537;-77
2021/09/17 10:09:33;;;;;;;11.70;10.07;;;19.40;99.90;;;;;;5041557;28;20880;-78
2021/09/17 10:12:00;;;;;;;14.57;9.20;;;19.50;99.90;;;;;;5027425;28;20496;-79
2021/09/17 10:14:29;;;;;;;14.83;8.87;;;19.70;99.90;;;;;;5021159;28;20465;-78
2021/09/17 10:16:58;;;;;;;11.83;9.60;;;19.90;99.90;;;;;;5024199;28;20461;-80
2021/09/17 10:19:25;;;;;;;15.83;10.70;;;20.00;99.90;;;;;;5039078;28;20461;-78
2021/09/17 10:21:55;;;;;;;12.00;10.00;;;20.20;99.90;;;;;;5022611;28;21077;-78
2021/09/17 10:24:38;;;;;;;14.87;9.37;;;20.10;99.90;;;;;;5032218;28;20560;-77
2021/09/17 10:27:08;;;;;;;11.00;9.10;;;20.10;99.90;;;;;;5034743;28;20437;-78
2021/09/17 10:29:37;;;;;;;12.23;9.70;;;20.20;99.90;;;;;;5036473;28;20519;-77
2021/09/17 10:32:05;;;;;;;13.27;9.70;;;20.00;99.90;;;;;;5025469;28;20453;-76
2021/09/17 10:34:40;;;;;;;13.77;10.47;;;20.00;99.90;;;;;;5035901;28;20481;-77
2021/09/17 10:37:09;;;;;;;11.63;9.40;;;20.00;99.90;;;;;;5034632;28;20455;-77
2021/09/17 10:39:38;;;;;;;12.23;10.07;;;20.20;99.90;;;;;;5035207;28;20945;-78
2021/09/17 10:42:14;;;;;;;13.03;10.73;;;20.10;99.90;;;;;;5016273;28;21088;-77
2021/09/17 10:45:15;;;;;;;11.37;9.47;;;19.90;99.90;;;;;;5032237;28;20470;-77
2021/09/17 10:47:58;;;;;;;13.10;9.87;;;20.00;99.90;;;;;;5034622;28;20427;-78
2021/09/17 10:50:43;;;;;;;11.50;8.60;;;19.90;99.90;;;;;;5030078;28;20464;-77
2021/09/17 10:53:11;;;;;;;9.83;8.80;;;19.80;99.90;;;;;;5018394;28;20454;-78
2021/09/17 10:56:06;;;;;;;15.77;8.80;;;19.90;99.90;;;;;;5038718;28;20504;-78
2021/09/17 10:58:34;;;;;;;14.37;9.47;;;19.80;99.90;;;;;;5036334;28;20856;-77
2021/09/17 11:01:03;;;;;;;13.23;9.30;;;19.80;99.90;;;;;;5024274;28;20468;-77
2021/09/17 11:03:58;;;;;;;11.50;8.03;;;19.90;99.90;;;;;;5016806;28;20449;-77
2021/09/17 11:06:27;;;;;;;13.90;9.10;;;19.90;99.90;;;;;;5017282;28;20461;-79
2021/09/17 11:08:56;;;;;;;11.07;8.30;;;20.10;99.90;;;;;;5038645;28;20456;-78
2021/09/17 11:11:25;;;;;;;11.47;8.57;;;20.50;99.90;;;;;;5028342;28;20454;-78
2021/09/17 11:13:52;;;;;;;16.03;10.03;;;20.70;99.90;;;;;;5038579;28;20590;-78
2021/09/17 11:16:21;;;;;;;11.00;8.53;;;20.40;99.90;;;;;;5038451;28;20481;-78
2021/09/17 11:18:52;;;;;;;12.27;8.50;;;20.60;99.90;;;;;;5039199;28;20487;-78
2021/09/17 11:21:20;;;;;;;9.93;8.20;;;20.70;99.90;;;;;;5036614;28;20481;-78
2021/09/17 11:23:51;;;;;;;12.70;8.50;;;20.80;99.90;;;;;;5033655;28;20476;-78
2021/09/17 11:26:19;;;;;;;9.50;8.10;;;20.90;99.90;;;;;;5034111;28;20498;-77
2021/09/17 11:28:58;;;;;;;11.10;8.27;;;21.10;99.90;;;;;;5033008;28;20949;-77
2021/09/17 11:31:26;;;;;;;9.60;8.40;;;20.90;99.90;;;;;;5020623;28;20869;-77
2021/09/17 11:33:56;;;;;;;9.87;8.57;;;20.60;99.90;;;;;;5013292;28;20480;-78
2021/09/17 11:36:34;;;;;;;9.17;6.80;;;20.40;99.90;;;;;;5017358;28;20453;-77
2021/09/17 11:39:15;;;;;;;9.07;7.70;;;20.20;99.90;;;;;;5035880;28;20518;-77
2021/09/17 11:41:43;;;;;;;8.87;7.47;;;20.30;99.90;;;;;;5028494;28;20567;-79
2021/09/17 11:44:11;;;;;;;8.60;7.17;;;20.40;99.90;;;;;;5037206;28;20492;-77
2021/09/17 11:46:38;;;;;;;10.43;7.00;;;20.30;99.90;;;;;;5035805;28;20449;-79
2021/09/17 11:49:05;;;;;;;9.10;7.33;;;20.10;99.90;;;;;;5033011;28;20458;-77
2021/09/17 11:51:32;;;;;;;8.60;7.37;;;20.00;99.90;;;;;;5020806;28;20898;-77
2021/09/17 11:53:59;;;;;;;7.57;6.60;;;20.10;99.90;;;;;;5015227;28;20479;-78
2021/09/17 11:56:25;;;;;;;8.13;6.20;;;20.20;99.90;;;;;;5031033;28;20517;-78
2021/09/17 11:58:52;;;;;;;7.50;6.00;;;19.90;99.90;;;;;;5038820;28;20506;-78
2021/09/17 12:01:23;;;;;;;7.80;5.43;;;20.00;99.90;;;;;;5029955;28;20898;-79
2021/09/17 12:03:50;;;;;;;6.70;5.67;;;20.00;99.90;;;;;;5034263;28;20472;-78
2021/09/17 12:06:17;;;;;;;8.20;4.63;;;20.00;99.90;;;;;;5058880;28;20507;-78
2021/09/17 12:08:45;;;;;;;8.73;5.70;;;20.10;99.90;;;;;;5052923;28;20449;-79
2021/09/17 12:11:13;;;;;;;7.17;4.67;;;20.20;99.90;;;;;;5048489;28;20506;-78
2021/09/17 12:13:41;;;;;;;6.87;5.30;;;20.30;99.90;;;;;;5049376;28;20488;-78
2021/09/17 12:16:11;;;;;;;10.40;5.00;;;20.50;99.90;;;;;;5045696;28;20457;-79
2021/09/17 12:18:39;;;;;;;5.57;4.20;;;20.50;99.90;;;;;;5044583;28;20452;-79
2021/09/17 12:21:06;;;;;;;5.70;4.60;;;20.50;99.80;;;;;;5036417;28;20525;-79
2021/09/17 12:23:39;;;;;;;6.60;5.20;;;20.40;99.90;;;;;;5024917;28;20517;-79
2021/09/17 12:26:08;;;;;;;6.27;4.77;;;20.60;99.60;;;;;;5037999;28;20453;-79
2021/09/17 12:28:35;;;;;;;5.77;4.17;;;20.70;98.90;;;;;;5058725;28;20481;-79
2021/09/17 12:31:02;;;;;;;6.90;4.07;;;20.70;99.00;;;;;;5037831;28;20458;-79
2021/09/17 12:33:32;;;;;;;6.27;3.90;;;20.80;98.40;;;;;;5024630;28;20451;-78
2021/09/17 12:36:11;;;;;;;6.30;4.03;;;20.80;97.10;;;;;;5027856;28;20441;-78
2021/09/17 12:38:38;;;;;;;6.53;3.60;;;20.70;96.20;;;;;;5033797;28;20426;-78
2021/09/17 12:41:11;;;;;;;6.50;4.00;;;20.80;96.30;;;;;;5047218;28;20536;-78
2021/09/17 12:43:39;;;;;;;5.77;3.40;;;20.80;96.60;;;;;;5045215;28;20536;-78
2021/09/17 12:46:09;;;;;;;4.53;3.00;;;20.80;95.60;;;;;;5046078;28;20461;-78
2021/09/17 12:48:37;;;;;;;3.83;2.87;;;20.70;94.30;;;;;;5044754;28;20484;-79